Time;durP1;ratioP1;P1;durP2;ratioP2;P2;SDS_P1;SDS_P2;PMS_P1;PMS_P2;Temp;Humidity;BMP_temperature;BMP_pressure;BME280_temperature;BME280_humidity;BME280_pressure;Samples;Min_cycle;Max_cycle;Signal;HPM_P1;HPM_P2
2023/12/06 00:01:29;;;;;;;83.25;43.10;;;;;;;;;;4995195;28;20397;-59
2023/12/06 00:03:55;;;;;;;93.55;45.70;;;;;;;;;;4995518;28;20026;-60
2023/12/06 00:06:21;;;;;;;89.85;44.95;;;;;;;;;;4995124;28;20027;-59
2023/12/06 00:08:48;;;;;;;88.97;45.58;;;;;;;;;;4995162;28;20034;-59
2023/12/06 00:11:14;;;;;;;89.03;44.20;;;;;;;;;;4977981;28;20054;-60
2023/12/06 00:13:40;;;;;;;84.30;44.00;;;;;;;;;;4995308;28;20089;-60
2023/12/06 00:16:05;;;;;;;116.97;64.63;;;;;;;;;;4994906;28;20404;-60
2023/12/06 00:18:31;;;;;;;100.03;56.08;;;;;;;;;;4995227;28;20034;-60
2023/12/06 00:20:56;;;;;;;104.20;55.95;;;;;;;;;;4994473;28;20121;-59
2023/12/06 00:23:22;;;;;;;110.53;56.22;;;;;;;;;;4994948;28;20034;-59
2023/12/06 00:25:47;;;;;;;99.93;53.38;;;;;;;;;;4995074;28;20121;-59
2023/12/06 00:28:13;;;;;;;101.60;52.22;;;;;;;;;;4995048;28;20084;-59
2023/12/06 00:30:38;;;;;;;107.80;51.92;;;;;;;;;;4994731;28;20034;-59
2023/12/06 00:33:03;;;;;;;105.18;52.83;;;;;;;;;;4994988;28;20061;-63
2023/12/06 00:35:29;;;;;;;96.07;49.53;;;;;;;;;;4994874;28;20053;-63
2023/12/06 00:37:54;;;;;;;92.65;46.70;;;;;;;;;;5019711;23;20131;-63
2023/12/06 00:40:20;;;;;;;115.00;53.42;;;;;;;;;;5014455;28;20062;-63
2023/12/06 00:42:45;;;;;;;111.38;52.67;;;;;;;;;;5014692;28;20041;-63
2023/12/06 00:45:17;;;;;;;108.25;52.55;;;;;;;;;;5014130;28;20022;-63
2023/12/06 00:47:43;;;;;;;110.10;53.33;;;;;;;;;;4997162;28;20037;-63
2023/12/06 00:50:08;;;;;;;108.80;52.03;;;;;;;;;;5014660;28;20030;-63
2023/12/06 00:52:34;;;;;;;174.82;96.78;;;;;;;;;;5014336;28;20030;-63
2023/12/06 00:54:59;;;;;;;96.07;51.03;;;;;;;;;;5014782;28;20404;-63
2023/12/06 00:57:25;;;;;;;93.72;49.42;;;;;;;;;;4980193;28;20033;-64
2023/12/06 00:59:50;;;;;;;103.75;54.30;;;;;;;;;;4996442;28;20037;-64
2023/12/06 01:02:15;;;;;;;97.78;49.38;;;;;;;;;;5012673;28;20034;-64
2023/12/06 01:04:41;;;;;;;88.32;45.45;;;;;;;;;;5013893;28;20018;-64
2023/12/06 01:07:06;;;;;;;80.72;40.63;;;;;;;;;;5013909;28;20472;-64
2023/12/06 01:09:32;;;;;;;76.53;40.22;;;;;;;;;;5012547;28;20055;-64
2023/12/06 01:11:58;;;;;;;75.90;41.65;;;;;;;;;;5013800;28;20519;-64
2023/12/06 01:14:24;;;;;;;73.00;39.58;;;;;;;;;;5013655;28;20499;-64
2023/12/06 01:16:49;;;;;;;68.68;35.78;;;;;;;;;;5014290;28;20092;-63
2023/12/06 01:19:16;;;;;;;71.50;37.55;;;;;;;;;;5013809;28;20034;-64
2023/12/06 01:21:42;;;;;;;143.32;83.85;;;;;;;;;;5013753;28;20114;-64
2023/12/06 01:24:07;;;;;;;108.97;63.35;;;;;;;;;;5012495;28;20385;-64
2023/12/06 01:26:33;;;;;;;66.50;33.53;;;;;;;;;;5014508;28;20058;-64
2023/12/06 01:28:59;;;;;;;68.40;35.25;;;;;;;;;;5013869;28;20030;-64
2023/12/06 01:31:24;;;;;;;64.78;34.50;;;;;;;;;;4979919;28;20018;-64
2023/12/06 01:33:50;;;;;;;66.50;34.53;;;;;;;;;;5017024;28;20116;-64
2023/12/06 01:36:16;;;;;;;63.28;34.28;;;;;;;;;;5017784;28;20022;-64
2023/12/06 01:38:41;;;;;;;63.20;33.55;;;;;;;;;;5017469;28;20081;-63
2023/12/06 01:41:10;;;;;;;64.18;33.17;;;;;;;;;;5017387;28;20025;-64
2023/12/06 01:43:36;;;;;;;70.50;34.13;;;;;;;;;;5017680;28;20392;-63
2023/12/06 01:46:02;;;;;;;61.05;33.47;;;;;;;;;;5016191;28;20029;-63
2023/12/06 01:48:28;;;;;;;67.95;34.80;;;;;;;;;;5017219;28;20034;-64
2023/12/06 01:50:54;;;;;;;66.10;35.85;;;;;;;;;;5017556;28;20189;-64
2023/12/06 01:53:19;;;;;;;88.18;54.35;;;;;;;;;;4999967;28;20041;-64
2023/12/06 01:55:45;;;;;;;70.50;42.65;;;;;;;;;;5017235;28;20033;-64
2023/12/06 01:58:10;;;;;;;87.30;55.58;;;;;;;;;;5017149;28;20512;-64
2023/12/06 02:00:35;;;;;;;65.47;36.95;;;;;;;;;;5017390;28;20032;-64
2023/12/06 02:03:01;;;;;;;61.05;33.22;;;;;;;;;;5015863;28;20034;-63
2023/12/06 02:05:26;;;;;;;71.93;35.60;;;;;;;;;;5017278;28;20038;-63
2023/12/06 02:07:52;;;;;;;71.57;38.80;;;;;;;;;;5017205;28;20036;-63
2023/12/06 02:10:18;;;;;;;70.40;36.22;;;;;;;;;;5017212;28;20030;-63
2023/12/06 02:12:43;;;;;;;73.07;37.83;;;;;;;;;;5016889;28;20022;-64
2023/12/06 02:15:09;;;;;;;73.95;37.70;;;;;;;;;;5017113;28;20033;-64
2023/12/06 02:17:35;;;;;;;71.63;36.65;;;;;;;;;;5017080;28;20380;-64
2023/12/06 02:20:01;;;;;;;66.55;36.33;;;;;;;;;;5016729;28;20030;-64
2023/12/06 02:22:27;;;;;;;65.20;34.67;;;;;;;;;;5016675;28;20026;-64
2023/12/06 02:24:55;;;;;;;70.93;35.42;;;;;;;;;;5016930;28;20380;-63
2023/12/06 02:27:21;;;;;;;72.32;36.63;;;;;;;;;;5016639;28;20026;-63
2023/12/06 02:29:46;;;;;;;70.70;36.97;;;;;;;;;;5017053;28;20373;-64
2023/12/06 02:32:12;;;;;;;71.22;36.42;;;;;;;;;;5017043;28;20026;-64
2023/12/06 02:34:38;;;;;;;76.63;37.78;;;;;;;;;;5016447;28;20472;-64
2023/12/06 02:37:04;;;;;;;77.80;40.70;;;;;;;;;;5016763;28;20042;-63
2023/12/06 02:39:39;;;;;;;75.50;39.13;;;;;;;;;;5015225;28;20030;-64
2023/12/06 02:42:05;;;;;;;76.40;39.30;;;;;;;;;;4999579;28;20037;-64
2023/12/06 02:44:30;;;;;;;75.10;38.80;;;;;;;;;;5016154;28;20029;-63
2023/12/06 02:46:56;;;;;;;73.05;36.92;;;;;;;;;;5016521;28;20052;-63
2023/12/06 02:49:21;;;;;;;72.28;37.15;;;;;;;;;;4998472;28;20044;-63
2023/12/06 02:51:46;;;;;;;67.35;35.22;;;;;;;;;;4998561;28;20116;-63
2023/12/06 02:54:12;;;;;;;75.25;40.72;;;;;;;;;;5016648;28;20026;-63
2023/12/06 02:56:37;;;;;;;66.38;35.55;;;;;;;;;;5014790;28;20064;-63
2023/12/06 02:59:02;;;;;;;72.55;37.33;;;;;;;;;;5016307;28;20042;-63
2023/12/06 03:01:28;;;;;;;68.68;34.92;;;;;;;;;;4982221;28;20033;-63
2023/12/06 03:03:53;;;;;;;66.60;36.55;;;;;;;;;;5015928;28;20025;-63
2023/12/06 03:06:18;;;;;;;72.57;37.08;;;;;;;;;;5015870;28;20536;-63
2023/12/06 03:08:44;;;;;;;71.82;35.85;;;;;;;;;;5015769;28;20479;-63
2023/12/06 03:11:09;;;;;;;78.30;38.67;;;;;;;;;;4998276;28;20530;-63
2023/12/06 03:13:34;;;;;;;68.60;38.25;;;;;;;;;;5015757;28;20465;-64
2023/12/06 03:16:00;;;;;;;70.78;36.38;;;;;;;;;;5015946;28;20108;-64
2023/12/06 03:18:26;;;;;;;70.75;36.10;;;;;;;;;;4981875;28;20033;-63
2023/12/06 03:20:51;;;;;;;73.70;37.10;;;;;;;;;;5014368;28;20030;-64
2023/12/06 03:23:17;;;;;;;75.82;38.65;;;;;;;;;;5014329;28;20030;-64
2023/12/06 03:25:43;;;;;;;71.45;39.08;;;;;;;;;;5015492;28;20034;-64
2023/12/06 03:28:08;;;;;;;77.55;42.47;;;;;;;;;;4981668;28;20120;-64
2023/12/06 03:30:34;;;;;;;87.93;43.08;;;;;;;;;;5015727;28;20022;-64
2023/12/06 03:32:59;;;;;;;87.43;42.38;;;;;;;;;;5015292;28;20530;-64
2023/12/06 03:35:25;;;;;;;76.78;40.25;;;;;;;;;;5015365;28;20026;-64
2023/12/06 03:37:50;;;;;;;74.50;38.75;;;;;;;;;;5014939;28;20057;-64
2023/12/06 03:40:15;;;;;;;78.07;39.97;;;;;;;;;;5015240;28;20049;-64
2023/12/06 03:42:42;;;;;;;73.45;38.25;;;;;;;;;;5015222;28;20034;-64
2023/12/06 03:45:07;;;;;;;73.88;37.85;;;;;;;;;;4997549;28;20535;-64
2023/12/06 03:47:33;;;;;;;74.85;39.63;;;;;;;;;;5015417;28;20117;-64
2023/12/06 03:49:58;;;;;;;77.85;39.63;;;;;;;;;;5013794;28;20116;-64
2023/12/06 03:52:23;;;;;;;74.82;37.40;;;;;;;;;;5015189;28;20026;-63
2023/12/06 03:54:49;;;;;;;72.55;36.78;;;;;;;;;;5014645;28;20072;-63
2023/12/06 03:57:14;;;;;;;83.18;40.88;;;;;;;;;;4997308;28;20037;-63
2023/12/06 03:59:40;;;;;;;74.35;37.83;;;;;;;;;;5013632;28;20044;-63
2023/12/06 04:02:05;;;;;;;68.93;36.25;;;;;;;;;;4997741;28;20022;-63
2023/12/06 04:04:31;;;;;;;74.57;37.45;;;;;;;;;;5015183;28;20064;-63
2023/12/06 04:06:56;;;;;;;70.28;35.47;;;;;;;;;;4997560;28;20026;-63
2023/12/06 04:09:21;;;;;;;68.82;34.47;;;;;;;;;;5015206;28;20415;-63
2023/12/06 04:11:47;;;;;;;67.35;34.13;;;;;;;;;;5015259;28;20030;-63
2023/12/06 04:14:13;;;;;;;64.72;32.53;;;;;;;;;;5014655;28;20030;-63
2023/12/06 04:16:38;;;;;;;66.00;35.38;;;;;;;;;;5014855;28;20030;-63
2023/12/06 04:19:03;;;;;;;67.25;34.22;;;;;;;;;;5014842;28;20029;-63
2023/12/06 04:21:29;;;;;;;65.72;32.85;;;;;;;;;;5014502;28;20353;-63
2023/12/06 04:23:54;;;;;;;65.32;33.63;;;;;;;;;;5015014;28;20068;-63
2023/12/06 04:26:20;;;;;;;60.33;31.40;;;;;;;;;;5012460;28;20038;-63
2023/12/06 04:28:45;;;;;;;64.18;33.85;;;;;;;;;;5014793;28;20133;-63
2023/12/06 04:31:11;;;;;;;60.30;31.83;;;;;;;;;;4996898;28;20463;-63
2023/12/06 04:33:36;;;;;;;61.75;31.13;;;;;;;;;;5014734;28;20029;-63
2023/12/06 04:36:02;;;;;;;57.83;31.25;;;;;;;;;;5014307;28;20075;-63
2023/12/06 04:38:27;;;;;;;56.13;30.42;;;;;;;;;;5012736;28;20068;-58
2023/12/06 04:40:53;;;;;;;56.90;30.13;;;;;;;;;;5014308;28;20140;-58
2023/12/06 04:43:18;;;;;;;54.78;30.20;;;;;;;;;;5013522;28;20029;-58
2023/12/06 04:45:43;;;;;;;58.75;30.85;;;;;;;;;;5013750;28;20034;-59
2023/12/06 04:48:09;;;;;;;44.45;24.98;;;;;;;;;;5012796;28;20084;-59
2023/12/06 04:50:34;;;;;;;55.63;29.83;;;;;;;;;;4996605;28;20026;-59
2023/12/06 04:53:00;;;;;;;55.67;28.88;;;;;;;;;;5013270;28;20030;-59
2023/12/06 04:55:25;;;;;;;55.22;29.83;;;;;;;;;;5012659;28;20033;-59
2023/12/06 04:57:50;;;;;;;56.13;29.08;;;;;;;;;;5012524;28;20449;-58
2023/12/06 05:00:17;;;;;;;57.30;29.90;;;;;;;;;;5012218;28;20045;-59
2023/12/06 05:02:45;;;;;;;57.53;30.35;;;;;;;;;;5012119;28;20116;-58
2023/12/06 05:05:12;;;;;;;60.63;31.63;;;;;;;;;;5012279;28;20500;-58
2023/12/06 05:07:38;;;;;;;67.43;32.92;;;;;;;;;;5011653;28;20049;-60
2023/12/06 05:10:04;;;;;;;68.20;34.05;;;;;;;;;;5011175;28;20481;-59
2023/12/06 05:12:29;;;;;;;65.97;32.33;;;;;;;;;;5011117;28;20033;-59
2023/12/06 05:14:54;;;;;;;66.07;32.80;;;;;;;;;;5011152;28;20041;-58
2023/12/06 05:17:20;;;;;;;73.28;37.33;;;;;;;;;;5011284;28;20029;-58
2023/12/06 05:19:45;;;;;;;66.15;35.40;;;;;;;;;;5011048;28;20524;-58
2023/12/06 05:22:11;;;;;;;58.40;32.95;;;;;;;;;;4978038;28;20040;-58
2023/12/06 05:24:37;;;;;;;56.75;30.55;;;;;;;;;;5009823;28;20054;-60
2023/12/06 05:27:02;;;;;;;48.65;28.30;;;;;;;;;;5012751;28;20085;-60
2023/12/06 05:29:28;;;;;;;44.60;27.75;;;;;;;;;;5012677;28;20022;-61
2023/12/06 05:31:53;;;;;;;49.03;28.30;;;;;;;;;;5012740;28;20034;-60
2023/12/06 05:34:19;;;;;;;46.95;28.52;;;;;;;;;;5011322;28;20022;-60
2023/12/06 05:36:44;;;;;;;53.35;29.67;;;;;;;;;;4995036;28;20096;-61
2023/12/06 05:39:10;;;;;;;50.92;29.58;;;;;;;;;;5011737;28;20065;-60
2023/12/06 05:41:35;;;;;;;49.72;29.48;;;;;;;;;;5011684;28;20480;-62
2023/12/06 05:44:01;;;;;;;51.03;30.17;;;;;;;;;;5011749;28;20033;-62
2023/12/06 05:46:26;;;;;;;51.25;29.58;;;;;;;;;;5011666;28;20365;-62
2023/12/06 05:48:51;;;;;;;54.00;29.90;;;;;;;;;;5011538;28;20357;-62
2023/12/06 05:51:17;;;;;;;57.58;30.40;;;;;;;;;;5011616;28;20034;-66
2023/12/06 05:53:43;;;;;;;58.70;31.83;;;;;;;;;;5012280;28;20038;-66
2023/12/06 05:56:09;;;;;;;52.97;30.75;;;;;;;;;;5012294;28;20029;-66
2023/12/06 05:58:35;;;;;;;50.50;28.00;;;;;;;;;;4994759;28;20400;-66
2023/12/06 06:01:01;;;;;;;46.95;28.95;;;;;;;;;;5011672;28;20467;-66
2023/12/06 06:03:26;;;;;;;48.65;29.42;;;;;;;;;;5011719;28;20072;-66
2023/12/06 06:05:52;;;;;;;54.90;30.52;;;;;;;;;;5011317;28;20036;-66
2023/12/06 06:08:18;;;;;;;51.42;29.52;;;;;;;;;;4993803;28;20026;-66
2023/12/06 06:10:43;;;;;;;51.78;30.23;;;;;;;;;;5011285;28;20069;-66
2023/12/06 06:13:09;;;;;;;55.67;30.63;;;;;;;;;;5012180;28;20076;-66
2023/12/06 06:15:35;;;;;;;56.53;32.80;;;;;;;;;;5011993;28;20496;-66
2023/12/06 06:18:00;;;;;;;57.35;33.15;;;;;;;;;;5012647;28;20106;-66
2023/12/06 06:20:26;;;;;;;56.00;32.80;;;;;;;;;;5015877;28;20030;-66
2023/12/06 06:22:51;;;;;;;60.17;35.05;;;;;;;;;;4998848;28;20089;-66
2023/12/06 06:25:17;;;;;;;52.00;32.75;;;;;;;;;;5015700;28;20060;-66
2023/12/06 06:27:42;;;;;;;57.70;32.88;;;;;;;;;;4998094;28;20033;-66
2023/12/06 06:33:42;;;;;;;57.92;32.65;;;;;;;;;;5015644;28;20025;-66
2023/12/06 06:43:46;;;;;;;70.03;38.70;;;;;;;;;;5016626;28;20096;-66
2023/12/06 06:49:46;;;;;;;60.42;32.90;;;;;;;;;;5016224;28;20105;-66
2023/12/06 06:55:47;;;;;;;59.33;33.75;;;;;;;;;;5016112;28;20104;-66
2023/12/06 07:01:48;;;;;;;67.72;38.40;;;;;;;;;;5016034;28;20025;-66
2023/12/06 07:08:02;;;;;;;78.25;49.05;;;;;;;;;;5016064;28;20032;-65
2023/12/06 07:14:03;;;;;;;166.02;119.63;;;;;;;;;;5015775;28;20079;-66
2023/12/06 07:20:04;;;;;;;88.68;53.95;;;;;;;;;;5015928;28;20109;-65
2023/12/06 07:26:06;;;;;;;69.20;39.33;;;;;;;;;;5015817;28;20028;-66
2023/12/06 07:32:07;;;;;;;78.55;43.95;;;;;;;;;;5015463;28;20076;-66
2023/12/06 07:38:10;;;;;;;72.93;39.95;;;;;;;;;;5015414;28;20530;-66
2023/12/06 07:44:24;;;;;;;61.20;35.60;;;;;;;;;;5015489;28;20596;-66
2023/12/06 07:50:25;;;;;;;92.70;56.85;;;;;;;;;;5015364;28;20072;-66
2023/12/06 07:56:26;;;;;;;218.20;116.45;;;;;;;;;;5015261;28;20028;-66
2023/12/06 08:02:27;;;;;;;89.70;52.50;;;;;;;;;;5015166;28;20113;-66
2023/12/06 08:08:27;;;;;;;85.57;48.92;;;;;;;;;;5014924;28;20100;-66
2023/12/06 08:14:28;;;;;;;58.53;32.45;;;;;;;;;;5014841;28;20502;-66
2023/12/06 08:20:29;;;;;;;69.47;40.65;;;;;;;;;;5014875;28;20156;-66
2023/12/06 08:26:29;;;;;;;63.67;37.03;;;;;;;;;;5014759;28;20028;-66
2023/12/06 08:32:30;;;;;;;75.90;46.20;;;;;;;;;;5014782;28;20194;-66
2023/12/06 08:42:43;;;;;;;56.28;32.95;;;;;;;;;;5014166;28;20369;-66
2023/12/06 08:48:44;;;;;;;61.10;37.53;;;;;;;;;;5014284;28;20548;-66
2023/12/06 08:54:51;;;;;;;75.22;49.05;;;;;;;;;;5014327;28;20032;-66
2023/12/06 09:00:52;;;;;;;50.03;29.40;;;;;;;;;;5014010;28;20071;-66
2023/12/06 09:06:53;;;;;;;50.50;26.85;;;;;;;;;;5014267;28;20053;-61
2023/12/06 09:12:53;;;;;;;44.00;24.02;;;;;;;;;;5014198;28;20025;-66
2023/12/06 09:18:56;;;;;;;57.80;28.08;;;;;;;;;;5014124;28;20388;-66
2023/12/06 09:24:57;;;;;;;47.85;23.80;;;;;;;;;;5014076;28;20075;-66
2023/12/06 09:30:59;;;;;;;55.33;25.88;;;;;;;;;;5013756;28;20033;-66
2023/12/06 09:36:59;;;;;;;37.97;21.13;;;;;;;;;;5013960;28;20033;-67
2023/12/06 09:47:18;;;;;;;41.10;21.65;;;;;;;;;;5013890;28;20106;-66
2023/12/06 09:53:21;;;;;;;47.58;25.20;;;;;;;;;;5014475;28;20071;-66
2023/12/06 09:59:22;;;;;;;49.97;26.23;;;;;;;;;;5017248;28;20068;-66
2023/12/06 10:05:23;;;;;;;50.90;26.70;;;;;;;;;;5017421;28;20025;-66
2023/12/06 10:11:24;;;;;;;59.78;33.10;;;;;;;;;;5017310;28;20101;-66
2023/12/06 10:17:25;;;;;;;51.03;28.35;;;;;;;;;;5017200;28;20025;-66
2023/12/06 10:23:25;;;;;;;51.15;28.98;;;;;;;;;;5016821;28;20113;-66
2023/12/06 10:29:26;;;;;;;55.80;32.67;;;;;;;;;;5016744;28;20036;-66
2023/12/06 10:35:27;;;;;;;56.25;29.90;;;;;;;;;;5016812;28;20107;-66
2023/12/06 10:41:30;;;;;;;44.95;26.48;;;;;;;;;;5016443;28;20031;-66
2023/12/06 10:47:44;;;;;;;76.82;45.92;;;;;;;;;;5016499;28;20048;-66
2023/12/06 10:53:46;;;;;;;37.90;23.50;;;;;;;;;;5016550;28;20108;-66
2023/12/06 10:59:47;;;;;;;38.78;23.17;;;;;;;;;;5016158;28;20041;-66
2023/12/06 11:04:49;;;;;;;35.53;22.95;;;;;;;;;;4994891;28;20493;-66
2023/12/06 11:07:26;;;;;;;40.83;25.77;;;;;;;;;;4978939;28;20539;-66
2023/12/06 11:09:55;;;;;;;34.92;22.55;;;;;;;;;;4996531;28;20057;-66
2023/12/06 11:12:38;;;;;;;35.92;23.60;;;;;;;;;;4995016;28;20044;-66
2023/12/06 11:15:10;;;;;;;38.60;24.00;;;;;;;;;;4996547;28;20045;-66
2023/12/06 11:17:43;;;;;;;38.17;23.30;;;;;;;;;;4996459;28;20097;-66
2023/12/06 11:20:09;;;;;;;35.08;22.25;;;;;;;;;;4996171;28;20174;-66
2023/12/06 11:22:35;;;;;;;41.13;27.00;;;;;;;;;;4996657;28;20063;-67
2023/12/06 11:25:01;;;;;;;36.33;22.50;;;;;;;;;;4994779;28;20034;-67
2023/12/06 11:27:26;;;;;;;30.05;20.65;;;;;;;;;;4996013;28;20117;-66
2023/12/06 11:29:52;;;;;;;45.13;26.95;;;;;;;;;;4996181;28;20027;-65
2023/12/06 11:32:18;;;;;;;45.90;29.83;;;;;;;;;;4995904;28;20023;-65
2023/12/06 11:34:43;;;;;;;45.10;29.65;;;;;;;;;;4978504;28;20010;-65
2023/12/06 11:37:16;;;;;;;35.75;22.55;;;;;;;;;;4995780;28;20461;-65
2023/12/06 11:39:46;;;;;;;32.50;20.95;;;;;;;;;;4996357;28;20026;-65
2023/12/06 11:42:16;;;;;;;36.07;23.30;;;;;;;;;;4978417;28;20046;-65
2023/12/06 11:44:50;;;;;;;33.40;21.60;;;;;;;;;;4995945;28;20142;-65
2023/12/06 11:47:16;;;;;;;41.83;25.23;;;;;;;;;;4996151;28;20069;-65
2023/12/06 11:49:50;;;;;;;70.32;50.47;;;;;;;;;;4994218;28;20077;-65
2023/12/06 11:52:16;;;;;;;49.63;32.33;;;;;;;;;;4995804;28;20038;-65
2023/12/06 11:54:44;;;;;;;79.25;42.38;;;;;;;;;;4995698;28;20037;-65
2023/12/06 11:57:10;;;;;;;73.10;40.55;;;;;;;;;;4995409;28;20027;-66
2023/12/06 11:59:35;;;;;;;52.42;30.23;;;;;;;;;;4995378;28;20153;-61
2023/12/06 12:02:01;;;;;;;37.05;23.45;;;;;;;;;;4995301;28;20034;-61
2023/12/06 12:04:27;;;;;;;37.90;24.23;;;;;;;;;;4995108;28;20066;-61
2023/12/06 12:06:52;;;;;;;37.67;23.58;;;;;;;;;;4995544;28;20038;-61
2023/12/06 12:09:18;;;;;;;44.72;26.55;;;;;;;;;;4995090;28;20473;-61
2023/12/06 12:11:45;;;;;;;36.05;23.08;;;;;;;;;;4995688;28;20037;-61
2023/12/06 12:14:10;;;;;;;36.45;23.90;;;;;;;;;;4995106;28;20030;-61
2023/12/06 12:16:36;;;;;;;44.85;26.23;;;;;;;;;;4994750;28;20104;-61
2023/12/06 12:19:03;;;;;;;37.75;23.33;;;;;;;;;;4995017;28;20496;-61
2023/12/06 12:21:29;;;;;;;44.15;25.30;;;;;;;;;;4995251;28;20023;-61
2023/12/06 12:23:54;;;;;;;54.53;30.10;;;;;;;;;;4977912;28;20038;-61
2023/12/06 12:26:20;;;;;;;54.60;31.00;;;;;;;;;;4995107;28;20096;-61
2023/12/06 12:28:45;;;;;;;47.88;27.67;;;;;;;;;;4995038;28;20030;-61
2023/12/06 12:31:15;;;;;;;41.00;25.30;;;;;;;;;;4995088;28;20034;-61
2023/12/06 12:33:41;;;;;;;47.20;29.67;;;;;;;;;;4995012;28;20052;-61
2023/12/06 12:36:07;;;;;;;40.03;25.20;;;;;;;;;;4995020;28;20041;-61
2023/12/06 12:38:34;;;;;;;34.88;22.65;;;;;;;;;;4994696;28;20089;-61
2023/12/06 12:40:59;;;;;;;40.53;24.50;;;;;;;;;;4994901;28;20042;-61
2023/12/06 12:43:25;;;;;;;38.67;23.05;;;;;;;;;;4994872;28;20030;-61
2023/12/06 12:45:50;;;;;;;42.28;24.50;;;;;;;;;;4994806;28;20018;-61
2023/12/06 12:48:16;;;;;;;40.22;24.65;;;;;;;;;;4994442;28;20030;-61
2023/12/06 12:50:41;;;;;;;42.63;25.98;;;;;;;;;;4993605;28;20110;-61
2023/12/06 12:53:07;;;;;;;37.75;23.88;;;;;;;;;;4994437;28;20030;-61
2023/12/06 12:55:32;;;;;;;39.25;24.63;;;;;;;;;;4993597;28;20057;-61
2023/12/06 12:57:58;;;;;;;40.17;25.05;;;;;;;;;;4994388;28;20037;-61
2023/12/06 13:00:25;;;;;;;37.25;23.48;;;;;;;;;;4994399;28;20026;-61
2023/12/06 13:02:52;;;;;;;41.45;25.33;;;;;;;;;;4994436;28;20077;-61
2023/12/06 13:05:18;;;;;;;52.10;31.67;;;;;;;;;;4994685;28;20022;-61
2023/12/06 13:07:43;;;;;;;52.53;31.77;;;;;;;;;;4994367;28;20431;-61
2023/12/06 13:10:10;;;;;;;52.63;33.70;;;;;;;;;;4994236;28;20038;-61
2023/12/06 13:12:39;;;;;;;51.88;29.63;;;;;;;;;;4994860;28;20112;-61
2023/12/06 13:15:05;;;;;;;47.42;29.63;;;;;;;;;;4994402;28;20473;-61
2023/12/06 13:17:30;;;;;;;70.30;42.40;;;;;;;;;;4994211;28;20034;-61
2023/12/06 13:19:56;;;;;;;128.98;80.85;;;;;;;;;;4994474;28;20372;-61
2023/12/06 13:22:22;;;;;;;99.40;62.25;;;;;;;;;;4994670;28;20162;-61
2023/12/06 13:24:47;;;;;;;96.05;58.08;;;;;;;;;;4994646;28;20038;-62
2023/12/06 13:27:13;;;;;;;91.10;57.13;;;;;;;;;;4994620;28;20110;-61
2023/12/06 13:29:38;;;;;;;69.13;42.08;;;;;;;;;;4997838;28;20041;-61
2023/12/06 13:32:04;;;;;;;104.13;65.22;;;;;;;;;;4979978;28;20033;-62
2023/12/06 13:34:29;;;;;;;111.38;67.65;;;;;;;;;;4996999;28;20472;-61
2023/12/06 13:36:54;;;;;;;116.90;76.43;;;;;;;;;;4995770;28;20081;-61
2023/12/06 13:39:20;;;;;;;85.07;56.13;;;;;;;;;;4996863;28;20421;-61
2023/12/06 13:41:45;;;;;;;151.13;119.30;;;;;;;;;;4996845;28;20030;-61
2023/12/06 13:44:11;;;;;;;120.65;83.57;;;;;;;;;;4995715;28;20061;-62
2023/12/06 13:46:39;;;;;;;150.70;94.13;;;;;;;;;;4996854;28;20042;-61
2023/12/06 13:49:04;;;;;;;212.27;120.85;;;;;;;;;;4979178;28;20041;-61
2023/12/06 13:51:30;;;;;;;174.52;104.85;;;;;;;;;;4997270;28;20030;-62
2023/12/06 13:53:56;;;;;;;86.28;54.80;;;;;;;;;;4997557;28;20023;-62
2023/12/06 13:56:21;;;;;;;60.17;41.50;;;;;;;;;;4997812;28;20481;-62
2023/12/06 13:58:47;;;;;;;72.90;45.97;;;;;;;;;;4997502;28;20048;-62
2023/12/06 14:01:12;;;;;;;57.03;37.15;;;;;;;;;;4997381;28;20036;-62
2023/12/06 14:03:42;;;;;;;76.63;49.03;;;;;;;;;;4997403;28;20050;-62
2023/12/06 14:06:09;;;;;;;55.47;34.25;;;;;;;;;;4997485;28;20030;-62
2023/12/06 14:08:34;;;;;;;52.42;29.98;;;;;;;;;;4997651;28;20445;-62
2023/12/06 14:11:00;;;;;;;133.57;67.55;;;;;;;;;;4998135;28;20105;-61
2023/12/06 14:13:25;;;;;;;78.85;43.53;;;;;;;;;;4997318;28;20036;-61
2023/12/06 14:15:51;;;;;;;54.97;33.33;;;;;;;;;;4997189;28;20126;-62
2023/12/06 14:18:16;;;;;;;94.95;62.70;;;;;;;;;;4996608;28;20041;-61
2023/12/06 14:20:43;;;;;;;86.72;52.85;;;;;;;;;;4996111;28;20026;-61
2023/12/06 14:23:08;;;;;;;77.05;44.42;;;;;;;;;;4995299;28;20030;-65
2023/12/06 14:25:34;;;;;;;63.13;37.78;;;;;;;;;;4995254;28;20038;-65
2023/12/06 14:27:59;;;;;;;55.70;34.30;;;;;;;;;;4995151;28;20022;-65
2023/12/06 14:30:25;;;;;;;47.95;28.58;;;;;;;;;;4997033;28;20041;-66
2023/12/06 14:32:50;;;;;;;76.05;43.67;;;;;;;;;;4997183;28;20066;-65
2023/12/06 14:35:16;;;;;;;72.88;39.70;;;;;;;;;;4996881;28;20026;-66
2023/12/06 14:37:41;;;;;;;85.32;45.67;;;;;;;;;;4995922;28;20019;-66
2023/12/06 14:40:07;;;;;;;75.35;41.53;;;;;;;;;;4996364;28;20481;-65
2023/12/06 14:42:32;;;;;;;83.10;53.35;;;;;;;;;;4995614;28;20066;-66
2023/12/06 14:44:58;;;;;;;67.65;40.35;;;;;;;;;;4997060;28;20381;-66
2023/12/06 14:47:23;;;;;;;70.45;40.42;;;;;;;;;;4997012;28;20034;-65
2023/12/06 14:49:49;;;;;;;53.67;32.65;;;;;;;;;;4996121;28;20042;-65
2023/12/06 14:52:14;;;;;;;53.05;33.15;;;;;;;;;;4997215;28;20035;-65
2023/12/06 14:54:40;;;;;;;51.53;32.72;;;;;;;;;;4996616;28;20068;-61
2023/12/06 14:57:05;;;;;;;70.60;46.28;;;;;;;;;;4996663;28;20058;-65
2023/12/06 14:59:32;;;;;;;70.05;48.38;;;;;;;;;;4996773;28;20030;-65
2023/12/06 15:01:58;;;;;;;62.67;38.20;;;;;;;;;;4995910;28;20038;-65
2023/12/06 15:04:24;;;;;;;68.93;41.17;;;;;;;;;;4996272;28;20046;-65
2023/12/06 15:06:50;;;;;;;66.18;39.63;;;;;;;;;;4978416;28;20057;-61
2023/12/06 15:09:16;;;;;;;79.63;44.90;;;;;;;;;;4995921;28;20038;-66
2023/12/06 15:11:41;;;;;;;65.50;39.13;;;;;;;;;;4996143;28;20037;-66
2023/12/06 15:14:07;;;;;;;69.85;40.63;;;;;;;;;;4996630;28;20559;-67
2023/12/06 15:16:33;;;;;;;70.93;43.50;;;;;;;;;;4994077;28;20027;-67
2023/12/06 15:18:59;;;;;;;91.50;50.20;;;;;;;;;;4996184;28;20049;-66
2023/12/06 15:21:25;;;;;;;106.68;63.97;;;;;;;;;;4995504;28;20062;-67
2023/12/06 15:23:50;;;;;;;88.10;51.60;;;;;;;;;;4994454;28;20034;-66
2023/12/06 15:26:16;;;;;;;69.72;43.67;;;;;;;;;;4994134;28;20496;-66
2023/12/06 15:28:43;;;;;;;91.43;53.55;;;;;;;;;;4993622;28;20477;-66
2023/12/06 15:31:11;;;;;;;90.05;55.42;;;;;;;;;;4993871;28;20030;-66
2023/12/06 15:33:36;;;;;;;68.50;41.92;;;;;;;;;;4993907;28;20060;-66
2023/12/06 15:36:02;;;;;;;130.90;82.95;;;;;;;;;;4994220;28;20058;-66
2023/12/06 15:38:27;;;;;;;91.00;58.42;;;;;;;;;;4994411;28;20038;-66
2023/12/06 15:40:53;;;;;;;93.95;59.65;;;;;;;;;;4994399;28;20034;-66
2023/12/06 15:43:18;;;;;;;77.97;47.13;;;;;;;;;;4994355;28;20018;-66
2023/12/06 15:45:43;;;;;;;76.57;49.72;;;;;;;;;;4977309;28;20093;-66
2023/12/06 15:48:09;;;;;;;71.15;42.40;;;;;;;;;;4978181;28;20078;-66
2023/12/06 15:50:34;;;;;;;72.25;46.67;;;;;;;;;;4995022;28;20026;-66
2023/12/06 15:52:59;;;;;;;71.60;42.67;;;;;;;;;;4995408;28;20023;-66
2023/12/06 15:55:25;;;;;;;71.65;41.58;;;;;;;;;;4978048;28;20439;-66
2023/12/06 15:57:50;;;;;;;79.00;50.45;;;;;;;;;;4978783;28;20018;-66
2023/12/06 16:00:16;;;;;;;74.72;44.35;;;;;;;;;;4977951;28;20488;-66
2023/12/06 16:02:41;;;;;;;80.72;48.45;;;;;;;;;;4995209;28;20030;-66
2023/12/06 16:05:09;;;;;;;73.75;46.65;;;;;;;;;;4995535;28;20042;-66
2023/12/06 16:07:35;;;;;;;99.90;62.65;;;;;;;;;;4993517;28;20452;-66
2023/12/06 16:10:05;;;;;;;91.15;50.72;;;;;;;;;;4995081;28;20034;-66
2023/12/06 16:12:33;;;;;;;83.55;48.25;;;;;;;;;;4995653;28;20101;-67
2023/12/06 16:14:58;;;;;;;91.53;50.67;;;;;;;;;;4995086;28;20080;-66
2023/12/06 16:17:24;;;;;;;103.65;62.47;;;;;;;;;;5014181;23;20066;-65
2023/12/06 16:19:49;;;;;;;158.85;110.63;;;;;;;;;;5014910;28;20029;-66
2023/12/06 16:22:14;;;;;;;144.93;95.10;;;;;;;;;;5014635;28;20034;-62
2023/12/06 16:24:40;;;;;;;152.50;99.10;;;;;;;;;;5014533;28;20116;-62
2023/12/06 16:27:05;;;;;;;206.90;130.68;;;;;;;;;;5015050;28;20033;-62
2023/12/06 16:29:30;;;;;;;126.75;85.32;;;;;;;;;;5013163;28;20121;-62
2023/12/06 16:31:58;;;;;;;110.15;69.63;;;;;;;;;;5013178;28;20026;-62
2023/12/06 16:34:23;;;;;;;104.30;69.95;;;;;;;;;;4996777;28;20481;-62
2023/12/06 16:36:49;;;;;;;94.85;59.38;;;;;;;;;;5014325;28;20168;-62
2023/12/06 16:39:14;;;;;;;110.57;66.93;;;;;;;;;;5014564;28;20453;-62
2023/12/06 16:41:42;;;;;;;100.07;59.40;;;;;;;;;;5014267;28;20045;-62
2023/12/06 16:44:13;;;;;;;93.15;54.97;;;;;;;;;;5014208;28;20042;-62
2023/12/06 16:46:38;;;;;;;96.18;56.42;;;;;;;;;;5014432;28;20411;-62
2023/12/06 16:49:03;;;;;;;98.40;56.22;;;;;;;;;;5026400;23;20054;-62
2023/12/06 16:51:29;;;;;;;93.05;52.30;;;;;;;;;;5014205;28;20084;-66
2023/12/06 16:53:54;;;;;;;102.63;59.67;;;;;;;;;;5014127;28;20117;-66
2023/12/06 16:56:19;;;;;;;108.78;64.60;;;;;;;;;;5014796;28;20029;-66
2023/12/06 16:58:45;;;;;;;118.50;70.57;;;;;;;;;;5014070;28;20033;-66